PWSweather.com
Personal Weather Stations
Station Observations
REUBENS
Camas Prairie, Reubens, ID

Camas PrairieReubens, ID

Lat: 46.35417, Lon: -116.53167

Elevation: 3480

Station Type: Davis VantagePro 2

http://www.theobrienranch.com/wx/wx.htm

Latest ConditionsUpdated 11:30:00 AM PDT Monday, Sep 1, 2014
Currently Today's Max Today's Min Today's Average
Temperature 60.8°F16.0°C 63.5°F17.5°C 43.9°F6.6°C 51.7°F10.9°C
Dew Point 40.4°F4.7°C 43.4°F6.3°C 35.5°F1.9°C 39.5°F4.2°C
Winds 10.1 mph WSW16.3 kmh WSW 10.1 mph WSW16.3 kmh WSW - 3.8 mph 6.1 kmh
Wind Gusts 13.0 mph20.9 kmh 13.0 mph20.9 kmh - -
Humidity 47% 78% 47% 64%
Pressure 30.04 in1017.3 mb 30.04 in1017.3 mb 29.95 in1014.2 mb -
Hour Temp Dew Point Humidity Winds Wind Gusts Pressure Precip Precip Rate Daily Precip Total
11:30 AM 60.8°F16.0°C 40.4°F4.7°C 47% 10.1 mph WSW16.3 kmh WSW 13.0 mph20.9 kmh 30.04 in1017.3 mb 0.00 in0.0 mm 0.00 in/hr0.0 mm/hr 0.00 in0.0 mm
11:00 AM 63.5°F17.5°C 43.4°F6.3°C 48% 1.4 mph NW2.3 kmh NW 6.0 mph9.7 kmh 30.03 in1016.9 mb 0.00 in0.0 mm 0.00 in/hr0.0 mm/hr 0.00 in0.0 mm
10:30 AM 58.8°F14.9°C 41.7°F5.4°C 53% 2.0 mph WSW3.2 kmh WSW 4.0 mph6.4 kmh 30.03 in1016.9 mb 0.00 in0.0 mm 0.00 in/hr0.0 mm/hr 0.00 in0.0 mm
10:00 AM 59.0°F15.0°C 41.9°F5.5°C 53% 4.6 mph WSW7.4 kmh WSW 11.0 mph17.7 kmh 30.03 in1016.9 mb 0.00 in0.0 mm 0.00 in/hr0.0 mm/hr 0.00 in0.0 mm
09:30 AM 60.4°F15.8°C 42.2°F5.7°C 51% 3.4 mph WNW5.5 kmh WNW 6.0 mph9.7 kmh 30.00 in1015.9 mb 0.00 in0.0 mm 0.00 in/hr0.0 mm/hr 0.00 in0.0 mm
09:00 AM 59.3°F15.2°C 42.1°F5.6°C 53% 2.2 mph W3.5 kmh W 3.0 mph4.8 kmh 30.01 in1016.3 mb 0.00 in0.0 mm 0.00 in/hr0.0 mm/hr 0.00 in0.0 mm
08:30 AM 57.5°F14.2°C 41.9°F5.5°C 56% 5.7 mph W9.2 kmh W 6.0 mph9.7 kmh 30.00 in1015.9 mb 0.00 in0.0 mm 0.00 in/hr0.0 mm/hr 0.00 in0.0 mm
08:00 AM 56.4°F13.6°C 41.8°F5.4°C 58% 5.4 mph W8.7 kmh W 7.0 mph11.3 kmh 30.00 in1015.9 mb 0.00 in0.0 mm 0.00 in/hr0.0 mm/hr 0.00 in0.0 mm
07:30 AM 53.9°F12.2°C 41.2°F5.1°C 62% 8.4 mph W13.5 kmh W 12.0 mph19.3 kmh 30.00 in1015.9 mb 0.00 in0.0 mm 0.00 in/hr0.0 mm/hr 0.00 in0.0 mm
07:00 AM 45.4°F7.4°C 39.0°F3.9°C 78% 1.3 mph S2.1 kmh S 2.0 mph3.2 kmh 30.04 in1017.3 mb 0.00 in0.0 mm 0.00 in/hr0.0 mm/hr 0.00 in0.0 mm
06:30 AM 45.9°F7.7°C 38.8°F3.8°C 76% 6.3 mph S10.1 kmh S 7.0 mph11.3 kmh 30.02 in1016.6 mb 0.00 in0.0 mm 0.00 in/hr0.0 mm/hr 0.00 in0.0 mm
06:00 AM 45.3°F7.4°C 37.8°F3.2°C 75% 4.1 mph S6.6 kmh S 5.0 mph8.0 kmh 30.01 in1016.3 mb 0.00 in0.0 mm 0.00 in/hr0.0 mm/hr 0.00 in0.0 mm
05:30 AM 48.4°F9.1°C 38.7°F3.7°C 69% 0.8 mph WSW1.3 kmh WSW 2.0 mph3.2 kmh 29.99 in1015.6 mb 0.00 in0.0 mm 0.00 in/hr0.0 mm/hr 0.00 in0.0 mm
05:00 AM 50.5°F10.3°C 39.6°F4.2°C 66% 5.2 mph W8.4 kmh W 6.0 mph9.7 kmh 29.98 in1015.2 mb 0.00 in0.0 mm 0.00 in/hr0.0 mm/hr 0.00 in0.0 mm
04:30 AM 51.6°F10.9°C 39.9°F4.4°C 64% 6.1 mph WSW9.8 kmh WSW 7.0 mph11.3 kmh 29.95 in1014.2 mb 0.00 in0.0 mm 0.00 in/hr0.0 mm/hr 0.00 in0.0 mm
04:00 AM 49.9°F9.9°C 39.8°F4.3°C 68% 1.9 mph SW3.1 kmh SW 2.0 mph3.2 kmh 29.96 in1014.6 mb 0.00 in0.0 mm 0.00 in/hr0.0 mm/hr 0.00 in0.0 mm
03:30 AM 49.7°F9.8°C 39.2°F4.0°C 67% 3.9 mph SW6.3 kmh SW 5.0 mph8.0 kmh 29.96 in1014.6 mb 0.00 in0.0 mm 0.00 in/hr0.0 mm/hr 0.00 in0.0 mm
03:00 AM 50.6°F10.3°C 39.6°F4.2°C 66% 2.5 mph SW4.0 kmh SW 3.0 mph4.8 kmh 29.96 in1014.6 mb 0.00 in0.0 mm 0.00 in/hr0.0 mm/hr 0.00 in0.0 mm
02:30 AM 48.5°F9.2°C 38.8°F3.8°C 69% 2.4 mph SSW3.9 kmh SSW 3.0 mph4.8 kmh 29.95 in1014.2 mb 0.00 in0.0 mm 0.00 in/hr0.0 mm/hr 0.00 in0.0 mm
02:00 AM 46.1°F7.8°C 37.6°F3.1°C 72% 2.6 mph SSW4.2 kmh SSW 3.0 mph4.8 kmh 29.96 in1014.6 mb 0.00 in0.0 mm 0.00 in/hr0.0 mm/hr 0.00 in0.0 mm
01:30 AM 45.3°F7.4°C 36.4°F2.4°C 71% 3.0 mph SSW4.8 kmh SSW 4.0 mph6.4 kmh 29.98 in1015.2 mb 0.00 in0.0 mm 0.00 in/hr0.0 mm/hr 0.00 in0.0 mm
01:00 AM 43.9°F6.6°C 35.5°F1.9°C 72% 3.5 mph SSW5.6 kmh SSW 4.0 mph6.4 kmh 29.99 in1015.6 mb 0.00 in0.0 mm 0.00 in/hr0.0 mm/hr 0.00 in0.0 mm
12:30 AM 45.4°F7.4°C 35.8°F2.1°C 69% 3.8 mph SSW6.1 kmh SSW 5.0 mph8.0 kmh 29.97 in1014.9 mb 0.00 in0.0 mm 0.00 in/hr0.0 mm/hr 0.00 in0.0 mm
12:00 AM 44.2°F6.8°C 35.7°F2.1°C 72% 1.5 mph SSW2.4 kmh SSW 2.0 mph3.2 kmh 29.97 in1014.9 mb 0.00 in0.0 mm 0.00 in/hr0.0 mm/hr 0.00 in0.0 mm